sensor_id;sensor_type;location;lat;lon;timestamp;P1;durP1;ratioP1;P2;durP2;ratioP2
15240;SDS011;7723;52.170;9.978;2023-02-28T00:01:09;8.37;;;4.67;;
15240;SDS011;7723;52.170;9.978;2023-02-28T00:03:37;8.40;;;4.33;;
15240;SDS011;7723;52.170;9.978;2023-02-28T00:06:04;6.07;;;4.30;;
15240;SDS011;7723;52.170;9.978;2023-02-28T00:08:34;8.27;;;3.93;;
15240;SDS011;7723;52.170;9.978;2023-02-28T00:11:01;7.07;;;3.93;;
15240;SDS011;7723;52.170;9.978;2023-02-28T00:13:31;6.17;;;4.10;;
15240;SDS011;7723;52.170;9.978;2023-02-28T00:15:58;6.67;;;4.27;;
15240;SDS011;7723;52.170;9.978;2023-02-28T00:18:26;6.80;;;4.40;;
15240;SDS011;7723;52.170;9.978;2023-02-28T00:20:54;6.10;;;3.60;;
15240;SDS011;7723;52.170;9.978;2023-02-28T00:23:21;5.97;;;3.90;;
15240;SDS011;7723;52.170;9.978;2023-02-28T00:25:48;7.47;;;4.33;;
15240;SDS011;7723;52.170;9.978;2023-02-28T00:28:16;5.63;;;3.47;;
15240;SDS011;7723;52.170;9.978;2023-02-28T00:30:45;10.70;;;4.47;;
15240;SDS011;7723;52.170;9.978;2023-02-28T00:33:12;6.43;;;3.83;;
15240;SDS011;7723;52.170;9.978;2023-02-28T00:35:39;5.73;;;3.90;;
15240;SDS011;7723;52.170;9.978;2023-02-28T00:38:06;8.23;;;3.93;;
15240;SDS011;7723;52.170;9.978;2023-02-28T00:40:34;7.70;;;3.83;;
15240;SDS011;7723;52.170;9.978;2023-02-28T00:43:01;6.40;;;3.40;;
15240;SDS011;7723;52.170;9.978;2023-02-28T00:45:29;8.47;;;4.77;;
15240;SDS011;7723;52.170;9.978;2023-02-28T00:47:57;5.67;;;3.60;;
15240;SDS011;7723;52.170;9.978;2023-02-28T00:50:24;5.03;;;3.63;;
15240;SDS011;7723;52.170;9.978;2023-02-28T00:52:52;6.57;;;4.27;;
15240;SDS011;7723;52.170;9.978;2023-02-28T00:55:19;5.40;;;3.50;;
15240;SDS011;7723;52.170;9.978;2023-02-28T00:57:46;5.93;;;3.57;;
15240;SDS011;7723;52.170;9.978;2023-02-28T01:00:14;5.03;;;3.20;;
15240;SDS011;7723;52.170;9.978;2023-02-28T01:02:41;5.87;;;3.37;;
15240;SDS011;7723;52.170;9.978;2023-02-28T01:05:10;6.03;;;3.47;;
15240;SDS011;7723;52.170;9.978;2023-02-28T01:07:37;4.93;;;3.20;;
15240;SDS011;7723;52.170;9.978;2023-02-28T01:10:04;11.43;;;3.60;;
15240;SDS011;7723;52.170;9.978;2023-02-28T01:12:32;5.53;;;3.33;;
15240;SDS011;7723;52.170;9.978;2023-02-28T01:14:59;6.87;;;3.60;;
15240;SDS011;7723;52.170;9.978;2023-02-28T01:17:27;7.33;;;3.63;;
15240;SDS011;7723;52.170;9.978;2023-02-28T01:19:54;5.43;;;3.23;;
15240;SDS011;7723;52.170;9.978;2023-02-28T01:22:23;5.83;;;3.43;;
15240;SDS011;7723;52.170;9.978;2023-02-28T01:24:50;8.63;;;4.40;;
15240;SDS011;7723;52.170;9.978;2023-02-28T01:27:17;7.00;;;4.10;;
15240;SDS011;7723;52.170;9.978;2023-02-28T01:29:44;6.77;;;4.10;;
15240;SDS011;7723;52.170;9.978;2023-02-28T01:32:11;6.60;;;3.93;;
15240;SDS011;7723;52.170;9.978;2023-02-28T01:34:39;4.77;;;3.63;;
15240;SDS011;7723;52.170;9.978;2023-02-28T01:37:06;7.27;;;4.33;;
15240;SDS011;7723;52.170;9.978;2023-02-28T01:39:34;7.97;;;4.23;;
15240;SDS011;7723;52.170;9.978;2023-02-28T01:42:02;4.87;;;3.50;;
15240;SDS011;7723;52.170;9.978;2023-02-28T01:47:27;6.30;;;4.00;;
15240;SDS011;7723;52.170;9.978;2023-02-28T01:49:58;6.50;;;4.70;;
15240;SDS011;7723;52.170;9.978;2023-02-28T01:52:28;6.17;;;4.10;;
15240;SDS011;7723;52.170;9.978;2023-02-28T01:54:58;7.10;;;4.30;;
15240;SDS011;7723;52.170;9.978;2023-02-28T01:57:28;6.17;;;4.37;;
15240;SDS011;7723;52.170;9.978;2023-02-28T02:00:04;7.80;;;5.07;;
15240;SDS011;7723;52.170;9.978;2023-02-28T02:02:35;6.27;;;4.70;;
15240;SDS011;7723;52.170;9.978;2023-02-28T02:05:04;7.40;;;4.40;;
15240;SDS011;7723;52.170;9.978;2023-02-28T02:07:35;7.27;;;4.53;;
15240;SDS011;7723;52.170;9.978;2023-02-28T02:10:06;8.97;;;4.93;;
15240;SDS011;7723;52.170;9.978;2023-02-28T02:12:49;9.23;;;4.80;;
15240;SDS011;7723;52.170;9.978;2023-02-28T02:15:30;8.83;;;4.07;;
15240;SDS011;7723;52.170;9.978;2023-02-28T02:18:03;7.90;;;4.83;;
15240;SDS011;7723;52.170;9.978;2023-02-28T02:20:49;11.53;;;5.20;;
15240;SDS011;7723;52.170;9.978;2023-02-28T02:23:57;8.83;;;5.20;;
15240;SDS011;7723;52.170;9.978;2023-02-28T02:26:57;9.63;;;6.17;;
15240;SDS011;7723;52.170;9.978;2023-02-28T02:29:40;10.53;;;4.80;;
15240;SDS011;7723;52.170;9.978;2023-02-28T02:32:29;8.97;;;5.80;;
15240;SDS011;7723;52.170;9.978;2023-02-28T02:35:15;7.93;;;4.53;;
15240;SDS011;7723;52.170;9.978;2023-02-28T02:37:51;8.97;;;5.50;;
15240;SDS011;7723;52.170;9.978;2023-02-28T02:40:22;6.30;;;4.13;;
15240;SDS011;7723;52.170;9.978;2023-02-28T02:42:54;8.47;;;5.63;;
15240;SDS011;7723;52.170;9.978;2023-02-28T02:45:27;8.00;;;4.30;;
15240;SDS011;7723;52.170;9.978;2023-02-28T02:48:01;6.20;;;4.37;;
15240;SDS011;7723;52.170;9.978;2023-02-28T02:50:33;10.03;;;5.10;;
15240;SDS011;7723;52.170;9.978;2023-02-28T02:53:04;6.73;;;4.23;;
15240;SDS011;7723;52.170;9.978;2023-02-28T02:55:34;7.50;;;4.60;;
15240;SDS011;7723;52.170;9.978;2023-02-28T02:58:07;8.33;;;4.90;;
15240;SDS011;7723;52.170;9.978;2023-02-28T03:00:37;8.83;;;5.73;;
15240;SDS011;7723;52.170;9.978;2023-02-28T03:03:07;9.33;;;5.83;;
15240;SDS011;7723;52.170;9.978;2023-02-28T03:05:41;9.10;;;5.33;;
15240;SDS011;7723;52.170;9.978;2023-02-28T03:08:11;7.73;;;5.10;;
15240;SDS011;7723;52.170;9.978;2023-02-28T03:10:40;9.10;;;5.43;;
15240;SDS011;7723;52.170;9.978;2023-02-28T03:13:13;10.53;;;6.40;;
15240;SDS011;7723;52.170;9.978;2023-02-28T03:16:18;9.57;;;5.87;;
15240;SDS011;7723;52.170;9.978;2023-02-28T03:19:01;11.93;;;5.77;;
15240;SDS011;7723;52.170;9.978;2023-02-28T03:21:38;10.40;;;5.57;;
15240;SDS011;7723;52.170;9.978;2023-02-28T03:24:10;9.10;;;5.90;;
15240;SDS011;7723;52.170;9.978;2023-02-28T03:26:42;8.77;;;6.00;;
15240;SDS011;7723;52.170;9.978;2023-02-28T03:29:15;9.00;;;5.97;;
15240;SDS011;7723;52.170;9.978;2023-02-28T03:31:49;9.90;;;6.13;;
15240;SDS011;7723;52.170;9.978;2023-02-28T03:34:22;8.53;;;5.83;;
15240;SDS011;7723;52.170;9.978;2023-02-28T03:36:57;10.47;;;6.00;;
15240;SDS011;7723;52.170;9.978;2023-02-28T03:39:30;7.80;;;6.03;;
15240;SDS011;7723;52.170;9.978;2023-02-28T03:42:04;11.57;;;6.33;;
15240;SDS011;7723;52.170;9.978;2023-02-28T03:44:36;8.93;;;5.87;;
15240;SDS011;7723;52.170;9.978;2023-02-28T03:47:08;7.20;;;4.90;;
15240;SDS011;7723;52.170;9.978;2023-02-28T03:49:39;8.87;;;6.03;;
15240;SDS011;7723;52.170;9.978;2023-02-28T03:52:11;8.83;;;5.47;;
15240;SDS011;7723;52.170;9.978;2023-02-28T03:54:41;10.17;;;5.87;;
15240;SDS011;7723;52.170;9.978;2023-02-28T03:57:12;9.33;;;6.27;;
15240;SDS011;7723;52.170;9.978;2023-02-28T03:59:47;9.77;;;6.43;;
15240;SDS011;7723;52.170;9.978;2023-02-28T04:02:18;10.47;;;5.40;;
15240;SDS011;7723;52.170;9.978;2023-02-28T04:04:45;11.33;;;5.67;;
15240;SDS011;7723;52.170;9.978;2023-02-28T04:07:16;9.70;;;5.63;;
15240;SDS011;7723;52.170;9.978;2023-02-28T04:09:43;7.70;;;5.60;;
15240;SDS011;7723;52.170;9.978;2023-02-28T04:12:11;11.30;;;6.03;;
15240;SDS011;7723;52.170;9.978;2023-02-28T04:14:38;8.13;;;5.37;;
15240;SDS011;7723;52.170;9.978;2023-02-28T04:17:05;8.63;;;5.83;;
15240;SDS011;7723;52.170;9.978;2023-02-28T04:19:32;8.90;;;6.10;;
15240;SDS011;7723;52.170;9.978;2023-02-28T04:21:59;7.73;;;5.60;;
15240;SDS011;7723;52.170;9.978;2023-02-28T04:24:28;9.60;;;6.23;;
15240;SDS011;7723;52.170;9.978;2023-02-28T04:26:55;12.27;;;6.87;;
15240;SDS011;7723;52.170;9.978;2023-02-28T04:29:26;10.07;;;6.00;;
15240;SDS011;7723;52.170;9.978;2023-02-28T04:31:54;19.77;;;10.00;;
15240;SDS011;7723;52.170;9.978;2023-02-28T04:34:22;14.00;;;7.90;;
15240;SDS011;7723;52.170;9.978;2023-02-28T04:36:50;10.30;;;6.43;;
15240;SDS011;7723;52.170;9.978;2023-02-28T04:39:19;9.67;;;5.97;;
15240;SDS011;7723;52.170;9.978;2023-02-28T04:41:48;9.70;;;6.17;;
15240;SDS011;7723;52.170;9.978;2023-02-28T04:44:15;7.03;;;4.73;;
15240;SDS011;7723;52.170;9.978;2023-02-28T04:46:42;8.70;;;4.97;;
15240;SDS011;7723;52.170;9.978;2023-02-28T04:49:10;7.77;;;4.33;;
15240;SDS011;7723;52.170;9.978;2023-02-28T04:51:38;6.77;;;4.27;;
15240;SDS011;7723;52.170;9.978;2023-02-28T04:54:06;7.50;;;4.47;;
15240;SDS011;7723;52.170;9.978;2023-02-28T04:56:33;9.97;;;4.33;;
15240;SDS011;7723;52.170;9.978;2023-02-28T04:59:02;6.23;;;4.50;;
15240;SDS011;7723;52.170;9.978;2023-02-28T05:01:30;7.57;;;4.43;;
15240;SDS011;7723;52.170;9.978;2023-02-28T05:03:59;5.87;;;4.20;;
15240;SDS011;7723;52.170;9.978;2023-02-28T05:06:28;9.50;;;5.07;;
15240;SDS011;7723;52.170;9.978;2023-02-28T05:08:56;6.87;;;4.00;;
15240;SDS011;7723;52.170;9.978;2023-02-28T05:11:25;7.53;;;3.97;;
15240;SDS011;7723;52.170;9.978;2023-02-28T05:13:54;7.83;;;3.70;;
15240;SDS011;7723;52.170;9.978;2023-02-28T05:16:23;6.30;;;3.63;;
15240;SDS011;7723;52.170;9.978;2023-02-28T05:18:50;5.07;;;3.60;;
15240;SDS011;7723;52.170;9.978;2023-02-28T05:21:26;6.87;;;4.07;;
15240;SDS011;7723;52.170;9.978;2023-02-28T05:23:55;6.63;;;4.03;;
15240;SDS011;7723;52.170;9.978;2023-02-28T05:26:23;8.10;;;4.07;;
15240;SDS011;7723;52.170;9.978;2023-02-28T05:28:51;6.57;;;4.20;;
15240;SDS011;7723;52.170;9.978;2023-02-28T05:31:18;7.77;;;3.70;;
15240;SDS011;7723;52.170;9.978;2023-02-28T05:33:47;5.20;;;3.67;;
15240;SDS011;7723;52.170;9.978;2023-02-28T05:36:14;8.33;;;3.50;;
15240;SDS011;7723;52.170;9.978;2023-02-28T05:38:41;7.43;;;3.63;;
15240;SDS011;7723;52.170;9.978;2023-02-28T05:41:09;6.60;;;3.87;;
15240;SDS011;7723;52.170;9.978;2023-02-28T05:43:37;4.67;;;3.53;;
15240;SDS011;7723;52.170;9.978;2023-02-28T05:46:04;5.77;;;3.70;;
15240;SDS011;7723;52.170;9.978;2023-02-28T05:48:32;7.00;;;3.97;;
15240;SDS011;7723;52.170;9.978;2023-02-28T05:51:02;5.77;;;3.97;;
15240;SDS011;7723;52.170;9.978;2023-02-28T05:53:30;5.70;;;3.70;;
15240;SDS011;7723;52.170;9.978;2023-02-28T05:55:58;6.17;;;3.40;;
15240;SDS011;7723;52.170;9.978;2023-02-28T05:58:26;5.47;;;3.37;;
15240;SDS011;7723;52.170;9.978;2023-02-28T06:00:55;4.73;;;3.83;;
15240;SDS011;7723;52.170;9.978;2023-02-28T06:03:23;7.30;;;4.00;;
15240;SDS011;7723;52.170;9.978;2023-02-28T06:05:51;6.13;;;3.90;;
15240;SDS011;7723;52.170;9.978;2023-02-28T06:08:19;5.27;;;3.63;;
15240;SDS011;7723;52.170;9.978;2023-02-28T06:10:46;8.27;;;3.50;;
15240;SDS011;7723;52.170;9.978;2023-02-28T06:13:14;6.40;;;3.80;;
15240;SDS011;7723;52.170;9.978;2023-02-28T06:15:41;6.93;;;3.80;;
15240;SDS011;7723;52.170;9.978;2023-02-28T06:18:08;4.90;;;3.63;;
15240;SDS011;7723;52.170;9.978;2023-02-28T06:20:35;10.00;;;4.37;;
15240;SDS011;7723;52.170;9.978;2023-02-28T06:23:02;8.73;;;4.27;;
15240;SDS011;7723;52.170;9.978;2023-02-28T06:25:31;5.27;;;3.87;;
15240;SDS011;7723;52.170;9.978;2023-02-28T06:27:58;9.30;;;4.53;;
15240;SDS011;7723;52.170;9.978;2023-02-28T06:30:25;7.63;;;3.83;;
15240;SDS011;7723;52.170;9.978;2023-02-28T06:32:56;9.10;;;4.10;;
15240;SDS011;7723;52.170;9.978;2023-02-28T06:35:23;8.33;;;4.17;;
15240;SDS011;7723;52.170;9.978;2023-02-28T06:37:51;8.73;;;4.30;;
15240;SDS011;7723;52.170;9.978;2023-02-28T06:40:18;9.93;;;4.53;;
15240;SDS011;7723;52.170;9.978;2023-02-28T06:42:47;7.43;;;4.17;;
15240;SDS011;7723;52.170;9.978;2023-02-28T06:45:14;8.80;;;4.47;;
15240;SDS011;7723;52.170;9.978;2023-02-28T06:47:42;8.03;;;5.03;;
15240;SDS011;7723;52.170;9.978;2023-02-28T06:50:11;8.83;;;4.70;;
15240;SDS011;7723;52.170;9.978;2023-02-28T06:52:38;8.17;;;5.00;;
15240;SDS011;7723;52.170;9.978;2023-02-28T06:55:06;7.13;;;4.50;;
15240;SDS011;7723;52.170;9.978;2023-02-28T06:57:35;9.17;;;5.30;;
15240;SDS011;7723;52.170;9.978;2023-02-28T07:00:05;7.97;;;4.80;;
15240;SDS011;7723;52.170;9.978;2023-02-28T07:02:34;8.67;;;5.70;;
15240;SDS011;7723;52.170;9.978;2023-02-28T07:05:01;8.13;;;4.90;;
15240;SDS011;7723;52.170;9.978;2023-02-28T07:07:28;7.37;;;5.30;;
15240;SDS011;7723;52.170;9.978;2023-02-28T07:09:55;11.83;;;5.37;;
15240;SDS011;7723;52.170;9.978;2023-02-28T07:12:22;8.43;;;5.43;;
15240;SDS011;7723;52.170;9.978;2023-02-28T07:14:49;10.53;;;6.17;;
15240;SDS011;7723;52.170;9.978;2023-02-28T07:17:18;14.40;;;6.40;;
15240;SDS011;7723;52.170;9.978;2023-02-28T07:19:45;8.10;;;5.70;;
15240;SDS011;7723;52.170;9.978;2023-02-28T07:22:12;8.30;;;5.07;;
15240;SDS011;7723;52.170;9.978;2023-02-28T07:24:39;11.27;;;5.27;;
15240;SDS011;7723;52.170;9.978;2023-02-28T07:27:06;10.27;;;5.17;;
15240;SDS011;7723;52.170;9.978;2023-02-28T07:29:33;9.03;;;5.13;;
15240;SDS011;7723;52.170;9.978;2023-02-28T07:32:01;9.27;;;5.20;;
15240;SDS011;7723;52.170;9.978;2023-02-28T07:34:30;7.07;;;4.90;;
15240;SDS011;7723;52.170;9.978;2023-02-28T07:36:57;7.87;;;5.27;;
15240;SDS011;7723;52.170;9.978;2023-02-28T07:39:25;8.27;;;5.70;;
15240;SDS011;7723;52.170;9.978;2023-02-28T07:41:52;9.60;;;5.03;;
15240;SDS011;7723;52.170;9.978;2023-02-28T07:44:19;10.67;;;5.53;;
15240;SDS011;7723;52.170;9.978;2023-02-28T07:46:46;10.33;;;5.10;;
15240;SDS011;7723;52.170;9.978;2023-02-28T07:49:13;7.77;;;5.03;;
15240;SDS011;7723;52.170;9.978;2023-02-28T07:51:41;10.40;;;4.57;;
15240;SDS011;7723;52.170;9.978;2023-02-28T07:54:09;6.90;;;4.43;;
15240;SDS011;7723;52.170;9.978;2023-02-28T07:56:36;7.78;;;4.70;;
15240;SDS011;7723;52.170;9.978;2023-02-28T07:59:03;5.90;;;4.30;;
15240;SDS011;7723;52.170;9.978;2023-02-28T08:01:30;7.50;;;4.50;;
15240;SDS011;7723;52.170;9.978;2023-02-28T08:03:57;6.20;;;4.93;;
15240;SDS011;7723;52.170;9.978;2023-02-28T08:06:25;6.32;;;4.20;;
15240;SDS011;7723;52.170;9.978;2023-02-28T08:08:54;6.28;;;4.07;;
15240;SDS011;7723;52.170;9.978;2023-02-28T08:11:22;5.55;;;3.80;;
15240;SDS011;7723;52.170;9.978;2023-02-28T08:13:49;5.28;;;3.33;;
15240;SDS011;7723;52.170;9.978;2023-02-28T08:16:16;5.88;;;3.47;;
15240;SDS011;7723;52.170;9.978;2023-02-28T08:18:47;6.38;;;3.40;;
15240;SDS011;7723;52.170;9.978;2023-02-28T08:21:14;5.00;;;3.53;;
15240;SDS011;7723;52.170;9.978;2023-02-28T08:23:41;6.73;;;4.20;;
15240;SDS011;7723;52.170;9.978;2023-02-28T08:26:10;4.90;;;3.60;;
15240;SDS011;7723;52.170;9.978;2023-02-28T08:28:37;6.68;;;3.65;;
15240;SDS011;7723;52.170;9.978;2023-02-28T08:31:08;4.20;;;3.00;;
15240;SDS011;7723;52.170;9.978;2023-02-28T08:33:36;5.13;;;3.20;;
15240;SDS011;7723;52.170;9.978;2023-02-28T08:36:05;9.20;;;3.85;;
15240;SDS011;7723;52.170;9.978;2023-02-28T08:38:33;4.60;;;3.17;;
15240;SDS011;7723;52.170;9.978;2023-02-28T08:41:01;4.40;;;3.50;;
15240;SDS011;7723;52.170;9.978;2023-02-28T08:43:32;4.82;;;3.20;;
15240;SDS011;7723;52.170;9.978;2023-02-28T08:46:00;4.10;;;3.37;;
15240;SDS011;7723;52.170;9.978;2023-02-28T08:48:28;5.07;;;3.70;;
15240;SDS011;7723;52.170;9.978;2023-02-28T08:50:56;3.22;;;2.92;;
15240;SDS011;7723;52.170;9.978;2023-02-28T08:53:23;5.68;;;3.20;;
15240;SDS011;7723;52.170;9.978;2023-02-28T08:55:57;3.40;;;3.10;;
15240;SDS011;7723;52.170;9.978;2023-02-28T08:58:25;6.63;;;3.28;;
15240;SDS011;7723;52.170;9.978;2023-02-28T09:00:54;5.03;;;2.97;;
15240;SDS011;7723;52.170;9.978;2023-02-28T09:03:22;4.03;;;3.00;;
15240;SDS011;7723;52.170;9.978;2023-02-28T09:05:54;5.93;;;3.22;;
15240;SDS011;7723;52.170;9.978;2023-02-28T09:08:22;5.15;;;3.00;;
15240;SDS011;7723;52.170;9.978;2023-02-28T09:10:50;3.60;;;3.08;;
15240;SDS011;7723;52.170;9.978;2023-02-28T09:13:17;3.08;;;2.72;;
15240;SDS011;7723;52.170;9.978;2023-02-28T09:15:45;3.90;;;3.17;;
15240;SDS011;7723;52.170;9.978;2023-02-28T09:18:14;3.55;;;2.80;;
15240;SDS011;7723;52.170;9.978;2023-02-28T09:20:41;4.70;;;3.60;;
15240;SDS011;7723;52.170;9.978;2023-02-28T09:23:09;4.95;;;3.72;;
15240;SDS011;7723;52.170;9.978;2023-02-28T09:25:40;3.90;;;3.10;;
15240;SDS011;7723;52.170;9.978;2023-02-28T09:28:12;4.25;;;3.50;;
15240;SDS011;7723;52.170;9.978;2023-02-28T09:30:40;3.78;;;2.80;;
15240;SDS011;7723;52.170;9.978;2023-02-28T09:33:08;3.53;;;2.80;;
15240;SDS011;7723;52.170;9.978;2023-02-28T09:35:36;3.47;;;2.55;;
15240;SDS011;7723;52.170;9.978;2023-02-28T09:38:04;6.30;;;2.60;;
15240;SDS011;7723;52.170;9.978;2023-02-28T09:40:34;3.17;;;2.63;;
15240;SDS011;7723;52.170;9.978;2023-02-28T09:43:03;3.92;;;2.60;;
15240;SDS011;7723;52.170;9.978;2023-02-28T09:45:31;3.95;;;2.30;;
15240;SDS011;7723;52.170;9.978;2023-02-28T09:48:02;3.03;;;2.40;;
15240;SDS011;7723;52.170;9.978;2023-02-28T09:50:37;3.45;;;2.35;;
15240;SDS011;7723;52.170;9.978;2023-02-28T09:53:10;3.88;;;2.75;;
15240;SDS011;7723;52.170;9.978;2023-02-28T09:55:45;3.22;;;2.40;;
15240;SDS011;7723;52.170;9.978;2023-02-28T09:58:18;3.30;;;2.20;;
15240;SDS011;7723;52.170;9.978;2023-02-28T10:00:50;3.17;;;2.10;;
15240;SDS011;7723;52.170;9.978;2023-02-28T10:03:25;3.33;;;2.20;;
15240;SDS011;7723;52.170;9.978;2023-02-28T10:06:01;4.85;;;2.50;;
15240;SDS011;7723;52.170;9.978;2023-02-28T10:08:40;5.13;;;2.70;;
15240;SDS011;7723;52.170;9.978;2023-02-28T10:11:14;3.63;;;2.53;;
15240;SDS011;7723;52.170;9.978;2023-02-28T10:13:48;3.70;;;2.45;;
15240;SDS011;7723;52.170;9.978;2023-02-28T10:16:22;3.47;;;2.50;;
15240;SDS011;7723;52.170;9.978;2023-02-28T10:18:59;4.60;;;2.58;;
15240;SDS011;7723;52.170;9.978;2023-02-28T10:21:31;4.20;;;2.25;;
15240;SDS011;7723;52.170;9.978;2023-02-28T10:24:04;3.70;;;2.55;;
15240;SDS011;7723;52.170;9.978;2023-02-28T10:26:39;3.75;;;2.15;;
15240;SDS011;7723;52.170;9.978;2023-02-28T10:29:10;4.57;;;2.95;;
15240;SDS011;7723;52.170;9.978;2023-02-28T10:31:37;4.03;;;2.10;;
15240;SDS011;7723;52.170;9.978;2023-02-28T10:34:05;4.28;;;2.22;;
15240;SDS011;7723;52.170;9.978;2023-02-28T10:36:35;2.65;;;2.10;;
15240;SDS011;7723;52.170;9.978;2023-02-28T10:39:03;2.92;;;2.13;;
15240;SDS011;7723;52.170;9.978;2023-02-28T10:42:03;4.50;;;2.20;;
15240;SDS011;7723;52.170;9.978;2023-02-28T10:44:31;5.28;;;2.78;;
15240;SDS011;7723;52.170;9.978;2023-02-28T10:46:58;6.78;;;2.38;;
15240;SDS011;7723;52.170;9.978;2023-02-28T10:49:27;3.42;;;2.42;;
15240;SDS011;7723;52.170;9.978;2023-02-28T10:51:57;5.28;;;2.47;;
15240;SDS011;7723;52.170;9.978;2023-02-28T10:54:27;5.07;;;2.53;;
15240;SDS011;7723;52.170;9.978;2023-02-28T10:57:07;2.75;;;2.10;;
15240;SDS011;7723;52.170;9.978;2023-02-28T10:59:40;3.28;;;2.42;;
15240;SDS011;7723;52.170;9.978;2023-02-28T11:02:30;5.05;;;2.40;;
15240;SDS011;7723;52.170;9.978;2023-02-28T11:04:59;3.60;;;1.90;;
15240;SDS011;7723;52.170;9.978;2023-02-28T11:07:27;3.30;;;2.20;;
15240;SDS011;7723;52.170;9.978;2023-02-28T11:09:55;7.28;;;2.15;;
15240;SDS011;7723;52.170;9.978;2023-02-28T11:12:25;3.33;;;1.80;;
15240;SDS011;7723;52.170;9.978;2023-02-28T11:14:55;3.30;;;1.90;;
15240;SDS011;7723;52.170;9.978;2023-02-28T11:17:26;2.45;;;1.88;;
15240;SDS011;7723;52.170;9.978;2023-02-28T11:19:55;2.42;;;1.90;;
15240;SDS011;7723;52.170;9.978;2023-02-28T11:22:24;3.25;;;1.80;;
15240;SDS011;7723;52.170;9.978;2023-02-28T11:24:56;2.78;;;1.77;;
15240;SDS011;7723;52.170;9.978;2023-02-28T11:27:47;4.00;;;2.00;;
15240;SDS011;7723;52.170;9.978;2023-02-28T11:30:25;1.95;;;1.35;;
15240;SDS011;7723;52.170;9.978;2023-02-28T11:32:54;3.17;;;1.50;;
15240;SDS011;7723;52.170;9.978;2023-02-28T11:35:23;2.38;;;1.45;;
15240;SDS011;7723;52.170;9.978;2023-02-28T11:37:53;3.63;;;1.60;;
15240;SDS011;7723;52.170;9.978;2023-02-28T11:40:23;2.00;;;1.35;;
15240;SDS011;7723;52.170;9.978;2023-02-28T11:42:59;3.38;;;1.42;;
15240;SDS011;7723;52.170;9.978;2023-02-28T11:45:39;1.70;;;1.13;;
15240;SDS011;7723;52.170;9.978;2023-02-28T11:48:22;2.13;;;1.80;;
15240;SDS011;7723;52.170;9.978;2023-02-28T11:51:00;3.30;;;1.88;;
15240;SDS011;7723;52.170;9.978;2023-02-28T11:53:46;2.83;;;1.67;;
15240;SDS011;7723;52.170;9.978;2023-02-28T11:56:36;3.45;;;2.10;;
15240;SDS011;7723;52.170;9.978;2023-02-28T11:59:13;2.78;;;1.88;;
15240;SDS011;7723;52.170;9.978;2023-02-28T12:02:03;3.70;;;1.60;;
15240;SDS011;7723;52.170;9.978;2023-02-28T12:04:44;2.22;;;1.60;;
15240;SDS011;7723;52.170;9.978;2023-02-28T12:07:22;3.55;;;2.10;;
15240;SDS011;7723;52.170;9.978;2023-02-28T12:09:58;3.15;;;1.90;;
15240;SDS011;7723;52.170;9.978;2023-02-28T12:12:37;1.83;;;1.50;;
15240;SDS011;7723;52.170;9.978;2023-02-28T12:15:17;5.03;;;1.65;;
15240;SDS011;7723;52.170;9.978;2023-02-28T12:17:57;4.25;;;1.58;;
15240;SDS011;7723;52.170;9.978;2023-02-28T12:20:33;2.15;;;1.40;;
15240;SDS011;7723;52.170;9.978;2023-02-28T12:23:19;2.35;;;1.60;;
15240;SDS011;7723;52.170;9.978;2023-02-28T12:26:01;2.50;;;1.67;;
15240;SDS011;7723;52.170;9.978;2023-02-28T12:28:36;1.55;;;1.42;;
15240;SDS011;7723;52.170;9.978;2023-02-28T12:31:10;3.33;;;1.73;;
15240;SDS011;7723;52.170;9.978;2023-02-28T12:33:45;2.65;;;1.70;;
15240;SDS011;7723;52.170;9.978;2023-02-28T12:36:14;3.58;;;1.55;;
15240;SDS011;7723;52.170;9.978;2023-02-28T12:38:47;2.25;;;1.70;;
15240;SDS011;7723;52.170;9.978;2023-02-28T12:41:19;2.15;;;1.67;;
15240;SDS011;7723;52.170;9.978;2023-02-28T12:43:55;2.45;;;1.67;;
15240;SDS011;7723;52.170;9.978;2023-02-28T12:46:28;3.53;;;1.67;;
15240;SDS011;7723;52.170;9.978;2023-02-28T12:49:00;3.65;;;1.98;;
15240;SDS011;7723;52.170;9.978;2023-02-28T12:51:32;2.47;;;1.60;;
15240;SDS011;7723;52.170;9.978;2023-02-28T12:54:04;3.97;;;2.13;;
15240;SDS011;7723;52.170;9.978;2023-02-28T12:56:42;4.25;;;2.53;;
15240;SDS011;7723;52.170;9.978;2023-02-28T12:59:21;2.35;;;1.40;;
15240;SDS011;7723;52.170;9.978;2023-02-28T13:01:57;4.00;;;1.80;;
15240;SDS011;7723;52.170;9.978;2023-02-28T13:04:41;3.25;;;1.80;;
15240;SDS011;7723;52.170;9.978;2023-02-28T13:07:26;6.10;;;3.28;;
15240;SDS011;7723;52.170;9.978;2023-02-28T13:10:19;2.65;;;2.20;;
15240;SDS011;7723;52.170;9.978;2023-02-28T13:12:47;2.10;;;1.65;;
15240;SDS011;7723;52.170;9.978;2023-02-28T13:15:18;4.85;;;3.03;;
15240;SDS011;7723;52.170;9.978;2023-02-28T13:17:50;3.70;;;1.83;;
15240;SDS011;7723;52.170;9.978;2023-02-28T13:20:20;2.22;;;1.55;;
15240;SDS011;7723;52.170;9.978;2023-02-28T13:22:49;2.20;;;1.52;;
15240;SDS011;7723;52.170;9.978;2023-02-28T13:31:28;2.90;;;1.70;;
15240;SDS011;7723;52.170;9.978;2023-02-28T13:34:05;1.70;;;1.40;;
15240;SDS011;7723;52.170;9.978;2023-02-28T13:36:40;3.50;;;1.73;;
15240;SDS011;7723;52.170;9.978;2023-02-28T13:42:22;3.03;;;1.80;;
15240;SDS011;7723;52.170;9.978;2023-02-28T13:47:54;7.63;;;1.98;;
15240;SDS011;7723;52.170;9.978;2023-02-28T13:50:27;1.85;;;1.48;;
15240;SDS011;7723;52.170;9.978;2023-02-28T13:53:02;2.38;;;1.50;;
15240;SDS011;7723;52.170;9.978;2023-02-28T13:55:48;2.88;;;1.70;;
15240;SDS011;7723;52.170;9.978;2023-02-28T13:58:24;3.80;;;1.90;;
15240;SDS011;7723;52.170;9.978;2023-02-28T14:01:11;2.03;;;1.70;;
15240;SDS011;7723;52.170;9.978;2023-02-28T14:03:57;2.42;;;1.55;;
15240;SDS011;7723;52.170;9.978;2023-02-28T14:06:40;2.35;;;1.73;;
15240;SDS011;7723;52.170;9.978;2023-02-28T14:09:17;2.72;;;1.80;;
15240;SDS011;7723;52.170;9.978;2023-02-28T14:11:50;3.53;;;2.15;;
15240;SDS011;7723;52.170;9.978;2023-02-28T14:17:23;3.92;;;1.70;;
15240;SDS011;7723;52.170;9.978;2023-02-28T14:19:53;2.45;;;1.50;;
15240;SDS011;7723;52.170;9.978;2023-02-28T14:22:32;3.72;;;1.73;;
15240;SDS011;7723;52.170;9.978;2023-02-28T14:25:16;3.10;;;1.70;;
15240;SDS011;7723;52.170;9.978;2023-02-28T14:27:50;5.10;;;1.95;;
15240;SDS011;7723;52.170;9.978;2023-02-28T14:30:40;2.40;;;1.60;;
15240;SDS011;7723;52.170;9.978;2023-02-28T14:33:21;2.28;;;1.27;;
15240;SDS011;7723;52.170;9.978;2023-02-28T14:36:04;3.03;;;2.10;;
15240;SDS011;7723;52.170;9.978;2023-02-28T14:38:40;5.18;;;2.03;;
15240;SDS011;7723;52.170;9.978;2023-02-28T14:41:19;5.32;;;1.80;;
15240;SDS011;7723;52.170;9.978;2023-02-28T14:43:49;2.38;;;1.50;;
15240;SDS011;7723;52.170;9.978;2023-02-28T14:46:17;3.08;;;1.83;;
15240;SDS011;7723;52.170;9.978;2023-02-28T14:48:46;3.20;;;1.98;;
15240;SDS011;7723;52.170;9.978;2023-02-28T14:51:19;2.35;;;1.98;;
15240;SDS011;7723;52.170;9.978;2023-02-28T14:53:49;4.13;;;2.45;;
15240;SDS011;7723;52.170;9.978;2023-02-28T14:56:22;3.17;;;2.15;;
15240;SDS011;7723;52.170;9.978;2023-02-28T14:58:52;2.17;;;1.77;;
15240;SDS011;7723;52.170;9.978;2023-02-28T15:01:21;2.08;;;1.63;;
15240;SDS011;7723;52.170;9.978;2023-02-28T15:03:56;3.13;;;2.00;;
15240;SDS011;7723;52.170;9.978;2023-02-28T15:06:27;2.08;;;1.77;;
15240;SDS011;7723;52.170;9.978;2023-02-28T15:09:08;3.30;;;2.47;;
15240;SDS011;7723;52.170;9.978;2023-02-28T15:11:37;5.05;;;2.80;;
15240;SDS011;7723;52.170;9.978;2023-02-28T15:14:06;3.17;;;2.20;;
15240;SDS011;7723;52.170;9.978;2023-02-28T15:16:34;3.58;;;2.33;;
15240;SDS011;7723;52.170;9.978;2023-02-28T15:19:05;2.88;;;2.05;;
15240;SDS011;7723;52.170;9.978;2023-02-28T15:21:41;3.65;;;2.25;;
15240;SDS011;7723;52.170;9.978;2023-02-28T15:24:12;4.13;;;2.22;;
15240;SDS011;7723;52.170;9.978;2023-02-28T15:26:49;2.42;;;1.98;;
15240;SDS011;7723;52.170;9.978;2023-02-28T15:29:21;3.35;;;1.95;;
15240;SDS011;7723;52.170;9.978;2023-02-28T15:31:50;3.08;;;2.10;;
15240;SDS011;7723;52.170;9.978;2023-02-28T15:34:22;3.22;;;2.20;;
15240;SDS011;7723;52.170;9.978;2023-02-28T15:36:54;3.05;;;1.92;;
15240;SDS011;7723;52.170;9.978;2023-02-28T15:39:23;2.40;;;2.10;;
15240;SDS011;7723;52.170;9.978;2023-02-28T15:41:54;2.35;;;1.70;;
15240;SDS011;7723;52.170;9.978;2023-02-28T15:44:36;3.03;;;2.00;;